createdAt,value
2022-11-23T00:01:22.477Z,95587.78
2022-11-23T00:06:15.056Z,95582.56
2022-11-23T00:11:06.892Z,95584.16
2022-11-23T00:15:58.621Z,95582.13
2022-11-23T00:20:50.299Z,95575.91
2022-11-23T00:25:45.971Z,95588.34
2022-11-23T00:30:37.652Z,95587.00
2022-11-23T00:35:29.320Z,95577.59
2022-11-23T00:40:20.999Z,95579.63
2022-11-23T00:45:12.687Z,95577.59
2022-11-23T00:50:04.801Z,95573.97
2022-11-23T00:54:56.456Z,95568.38
2022-11-23T00:59:48.189Z,95572.06
2022-11-23T01:04:40.123Z,95559.16
2022-11-23T01:09:32.146Z,95566.88
2022-11-23T01:14:25.038Z,95568.25
2022-11-23T01:19:20.144Z,95570.19
2022-11-23T01:24:20.275Z,95565.66
2022-11-23T01:29:12.998Z,95572.13
2022-11-23T01:34:04.704Z,95581.25
2022-11-23T01:38:58.434Z,95577.44
2022-11-23T01:43:52.739Z,95574.72
2022-11-23T01:48:58.021Z,95575.41
2022-11-23T01:53:54.555Z,95577.53
2022-11-23T01:58:53.710Z,95579.81
2022-11-23T02:03:48.985Z,95579.94
2022-11-23T02:08:42.002Z,95584.38
2022-11-23T02:13:33.907Z,95580.53
2022-11-23T02:18:30.656Z,95584.03
2022-11-23T02:23:43.518Z,95596.06
2022-11-23T02:28:52.483Z,95599.22
2022-11-23T02:33:44.253Z,95595.72
2022-11-23T02:38:36.001Z,95600.25
2022-11-23T02:43:27.929Z,95594.34
2022-11-23T02:48:19.638Z,95587.56
2022-11-23T02:53:12.583Z,95584.63
2022-11-23T02:58:06.990Z,95585.28
2022-11-23T03:03:01.720Z,95577.25
2022-11-23T03:07:53.504Z,95586.94
2022-11-23T03:12:45.364Z,95589.88
2022-11-23T03:17:37.093Z,95591.88
2022-11-23T03:22:28.752Z,95588.03
2022-11-23T03:27:20.559Z,95581.03
2022-11-23T03:32:12.231Z,95582.06
2022-11-23T03:37:03.902Z,95584.88
2022-11-23T03:41:56.084Z,95580.34
2022-11-23T03:46:47.828Z,95580.16
2022-11-23T03:51:39.579Z,95567.75
2022-11-23T03:56:31.240Z,95566.81
2022-11-23T04:01:23.049Z,95568.44
2022-11-23T04:06:14.916Z,95564.97
2022-11-23T04:11:06.842Z,95563.03
2022-11-23T04:15:58.726Z,95560.50
2022-11-23T04:20:50.488Z,95561.94
2022-11-23T04:25:42.961Z,95559.44
2022-11-23T04:30:35.270Z,95561.31
2022-11-23T04:35:27.059Z,95570.69
2022-11-23T04:40:18.970Z,95569.53
2022-11-23T04:45:11.444Z,95561.50
2022-11-23T04:50:03.581Z,95553.94
2022-11-23T04:54:55.326Z,95545.72
2022-11-23T04:59:47.060Z,95558.63
2022-11-23T05:04:40.913Z,95549.59
2022-11-23T05:14:38.861Z,95530.78
2022-11-23T05:19:30.881Z,95531.44
2022-11-23T05:29:29.509Z,95525.34
2022-11-23T05:34:26.009Z,95528.25
2022-11-23T05:39:17.778Z,95523.00
2022-11-23T05:44:10.344Z,95536.66
2022-11-23T05:49:05.882Z,95530.81
2022-11-23T05:54:02.075Z,95528.94
2022-11-23T06:04:09.987Z,95534.53
2022-11-23T06:09:02.856Z,95544.41
2022-11-23T06:13:58.662Z,95550.84
2022-11-23T06:18:52.152Z,95545.91
2022-11-23T06:23:45.609Z,95545.16
2022-11-23T06:28:39.084Z,95547.44
2022-11-23T06:33:31.044Z,95549.47
2022-11-23T06:59:00.533Z,95553.06
2022-11-23T07:03:53.865Z,95565.41
2022-11-23T07:08:52.953Z,95572.38
2022-11-23T07:13:46.028Z,95572.94
2022-11-23T07:18:39.846Z,95582.41
2022-11-23T07:23:32.375Z,95582.34
2022-11-23T07:28:28.938Z,95594.69
2022-11-23T07:33:22.409Z,95592.56
2022-11-23T07:38:14.778Z,95593.69
2022-11-23T07:43:08.104Z,95604.00
2022-11-23T07:58:13.837Z,95604.75
2022-11-23T08:13:24.610Z,95597.50
2022-11-23T08:28:31.989Z,95594.50
2022-11-23T08:33:27.434Z,95591.03
2022-11-23T08:43:34.875Z,95585.47
2022-11-23T08:58:48.956Z,95566.03
2022-11-23T09:08:54.881Z,95567.41
2022-11-23T09:13:47.758Z,95560.63
2022-11-23T09:18:41.846Z,95564.69
2022-11-23T09:23:40.739Z,95561.97
2022-11-23T09:33:40.470Z,95562.03
2022-11-23T09:44:03.866Z,95566.81
2022-11-23T10:05:08.252Z,95556.56
2022-11-23T10:16:25.764Z,95555.44
2022-11-23T10:43:27.892Z,95554.31
2022-11-23T10:58:52.022Z,95543.84
2022-11-23T11:54:29.285Z,95502.34
2022-11-23T12:00:02.024Z,95499.88
2022-11-23T12:16:27.149Z,95490.13
2022-11-23T12:43:33.556Z,95463.41
2022-11-23T13:38:37.866Z,95446.31
2022-11-23T13:54:27.095Z,95434.69
2022-11-23T17:56:45.348Z,95708.41
2022-11-23T18:58:10.552Z,95816.16
2022-11-23T19:54:21.933Z,95940.41
2022-11-23T21:16:10.739Z,96096.31
2022-11-23T21:41:34.484Z,96149.03
2022-11-23T21:46:27.200Z,96137.00
2022-11-23T22:11:52.435Z,96173.75
2022-11-23T22:21:58.636Z,96180.31
2022-11-23T22:42:12.900Z,96212.22
2022-11-23T22:47:08.799Z,96226.25
2022-11-23T23:02:40.886Z,96242.47
2022-11-23T23:28:04.040Z,96235.81
2022-11-23T23:33:01.704Z,96246.84
2022-11-23T23:37:54.530Z,96247.41
